sensor_id;sensor_type;location;lat;lon;timestamp;pressure;altitude;pressure_sealevel;temperature;humidity
65190;BME280;51777;53.570;9.984;2023-04-22T00:00:22;101096.91;;;11.91;100.00
65190;BME280;51777;53.570;9.984;2023-04-22T00:02:47;101098.69;;;11.91;100.00
65190;BME280;51777;53.570;9.984;2023-04-22T00:05:12;101092.94;;;11.87;100.00
65190;BME280;51777;53.570;9.984;2023-04-22T00:07:39;101098.00;;;11.89;100.00
65190;BME280;51777;53.570;9.984;2023-04-22T00:10:06;101089.03;;;11.83;100.00
65190;BME280;51777;53.570;9.984;2023-04-22T00:12:32;101086.59;;;11.82;100.00
65190;BME280;51777;53.570;9.984;2023-04-22T00:14:58;101075.66;;;11.78;100.00
65190;BME280;51777;53.570;9.984;2023-04-22T00:17:24;101076.50;;;11.79;100.00
65190;BME280;51777;53.570;9.984;2023-04-22T00:19:49;101070.63;;;11.76;100.00
65190;BME280;51777;53.570;9.984;2023-04-22T00:22:14;101074.75;;;11.69;100.00
65190;BME280;51777;53.570;9.984;2023-04-22T00:24:40;101064.16;;;11.63;100.00
65190;BME280;51777;53.570;9.984;2023-04-22T00:27:05;101061.16;;;11.67;100.00
65190;BME280;51777;53.570;9.984;2023-04-22T00:29:32;101061.72;;;11.61;100.00
65190;BME280;51777;53.570;9.984;2023-04-22T00:31:57;101057.59;;;11.68;100.00
65190;BME280;51777;53.570;9.984;2023-04-22T00:34:22;101049.06;;;11.76;100.00
65190;BME280;51777;53.570;9.984;2023-04-22T00:36:48;101050.63;;;11.69;100.00
65190;BME280;51777;53.570;9.984;2023-04-22T00:39:13;101052.25;;;11.70;100.00
65190;BME280;51777;53.570;9.984;2023-04-22T00:41:39;101042.31;;;11.65;100.00
65190;BME280;51777;53.570;9.984;2023-04-22T00:44:10;101045.34;;;11.61;100.00
65190;BME280;51777;53.570;9.984;2023-04-22T00:46:39;101043.06;;;11.58;100.00
65190;BME280;51777;53.570;9.984;2023-04-22T00:49:08;101047.13;;;11.60;100.00
65190;BME280;51777;53.570;9.984;2023-04-22T00:51:34;101033.81;;;11.55;100.00
65190;BME280;51777;53.570;9.984;2023-04-22T00:53:59;101032.69;;;11.58;100.00
65190;BME280;51777;53.570;9.984;2023-04-22T00:56:35;101028.34;;;11.58;100.00
65190;BME280;51777;53.570;9.984;2023-04-22T00:59:08;101030.63;;;11.61;100.00
65190;BME280;51777;53.570;9.984;2023-04-22T01:01:35;101037.72;;;11.59;100.00
65190;BME280;51777;53.570;9.984;2023-04-22T01:04:00;101029.97;;;11.59;100.00
65190;BME280;51777;53.570;9.984;2023-04-22T01:06:28;101028.03;;;11.61;100.00
65190;BME280;51777;53.570;9.984;2023-04-22T01:08:55;101031.28;;;11.63;100.00
65190;BME280;51777;53.570;9.984;2023-04-22T01:11:20;101021.91;;;11.62;100.00
65190;BME280;51777;53.570;9.984;2023-04-22T01:13:45;101014.78;;;11.64;100.00
65190;BME280;51777;53.570;9.984;2023-04-22T01:16:12;101022.84;;;11.61;100.00
65190;BME280;51777;53.570;9.984;2023-04-22T01:18:37;101015.75;;;11.63;100.00
65190;BME280;51777;53.570;9.984;2023-04-22T01:21:03;101014.78;;;11.64;100.00
65190;BME280;51777;53.570;9.984;2023-04-22T01:23:29;101011.53;;;11.62;100.00
65190;BME280;51777;53.570;9.984;2023-04-22T01:25:54;101013.16;;;11.63;100.00
65190;BME280;51777;53.570;9.984;2023-04-22T01:28:22;101005.38;;;11.63;100.00
65190;BME280;51777;53.570;9.984;2023-04-22T01:30:47;101011.53;;;11.62;100.00
65190;BME280;51777;53.570;9.984;2023-04-22T01:33:14;101005.38;;;11.63;100.00
65190;BME280;51777;53.570;9.984;2023-04-22T01:35:39;101002.66;;;11.65;100.00
65190;BME280;51777;53.570;9.984;2023-04-22T01:38:07;101003.47;;;11.65;100.00
65190;BME280;51777;53.570;9.984;2023-04-22T01:40:33;100996.16;;;11.61;100.00
65190;BME280;51777;53.570;9.984;2023-04-22T01:42:59;100997.78;;;11.62;100.00
65190;BME280;51777;53.570;9.984;2023-04-22T01:45:25;100995.84;;;11.64;100.00
65190;BME280;51777;53.570;9.984;2023-04-22T01:47:51;100990.97;;;11.61;100.00
65190;BME280;51777;53.570;9.984;2023-04-22T01:50:17;100990.59;;;11.56;100.00
65190;BME280;51777;53.570;9.984;2023-04-22T01:52:42;100988.66;;;11.58;100.00
65190;BME280;51777;53.570;9.984;2023-04-22T01:55:08;100986.22;;;11.56;100.00
65190;BME280;51777;53.570;9.984;2023-04-22T01:57:34;100985.28;;;11.57;100.00
65190;BME280;51777;53.570;9.984;2023-04-22T01:59:59;100981.19;;;11.55;100.00
65190;BME280;51777;53.570;9.984;2023-04-22T02:02:25;100977.66;;;11.56;100.00
65190;BME280;51777;53.570;9.984;2023-04-22T02:04:50;100976.84;;;11.55;100.00
65190;BME280;51777;53.570;9.984;2023-04-22T02:07:16;100979.19;;;11.48;100.00
65190;BME280;51777;53.570;9.984;2023-04-22T02:09:41;100980.81;;;11.50;100.00
65190;BME280;51777;53.570;9.984;2023-04-22T02:12:07;100971.94;;;11.52;100.00
65190;BME280;51777;53.570;9.984;2023-04-22T02:14:32;100972.53;;;11.46;100.00
65190;BME280;51777;53.570;9.984;2023-04-22T02:16:57;100956.69;;;11.49;100.00
65190;BME280;51777;53.570;9.984;2023-04-22T02:19:23;100960.25;;;11.48;100.00
65190;BME280;51777;53.570;9.984;2023-04-22T02:21:48;100956.69;;;11.49;100.00
65190;BME280;51777;53.570;9.984;2023-04-22T02:24:14;100957.19;;;11.53;100.00
65190;BME280;51777;53.570;9.984;2023-04-22T02:26:39;100953.13;;;11.50;100.00
65190;BME280;51777;53.570;9.984;2023-04-22T02:29:05;100957.19;;;11.53;100.00
65190;BME280;51777;53.570;9.984;2023-04-22T02:31:31;100953.69;;;11.54;100.00
65190;BME280;51777;53.570;9.984;2023-04-22T02:33:56;100951.22;;;11.52;100.00
65190;BME280;51777;53.570;9.984;2023-04-22T02:36:22;100948.78;;;11.51;100.00
65190;BME280;51777;53.570;9.984;2023-04-22T02:38:47;100935.97;;;11.49;100.00
65190;BME280;51777;53.570;9.984;2023-04-22T02:41:13;100940.34;;;11.48;100.00
65190;BME280;51777;53.570;9.984;2023-04-22T02:43:38;100934.66;;;11.45;100.00
65190;BME280;51777;53.570;9.984;2023-04-22T02:46:06;100924.59;;;11.42;100.00
65190;BME280;51777;53.570;9.984;2023-04-22T02:48:31;100929.06;;;11.40;100.00
65190;BME280;51777;53.570;9.984;2023-04-22T02:50:57;100924.84;;;11.39;100.00
65190;BME280;51777;53.570;9.984;2023-04-22T02:53:22;100931.66;;;11.40;100.00
65190;BME280;51777;53.570;9.984;2023-04-22T02:55:47;100921.91;;;11.34;100.00
65190;BME280;51777;53.570;9.984;2023-04-22T02:58:13;100930.78;;;11.31;100.00
65190;BME280;51777;53.570;9.984;2023-04-22T03:00:38;100929.00;;;11.32;100.00
65190;BME280;51777;53.570;9.984;2023-04-22T03:03:03;100924.94;;;11.29;100.00
65190;BME280;51777;53.570;9.984;2023-04-22T03:05:29;100922.47;;;11.28;100.00
65190;BME280;51777;53.570;9.984;2023-04-22T03:07:54;100924.94;;;11.29;100.00
65190;BME280;51777;53.570;9.984;2023-04-22T03:10:20;100915.66;;;11.27;100.00
65190;BME280;51777;53.570;9.984;2023-04-22T03:12:45;100916.22;;;11.30;100.00
65190;BME280;51777;53.570;9.984;2023-04-22T03:15:11;100915.25;;;11.31;100.00
65190;BME280;51777;53.570;9.984;2023-04-22T03:17:36;100911.84;;;11.31;100.00
65190;BME280;51777;53.570;9.984;2023-04-22T03:20:02;100898.50;;;11.26;100.00
65190;BME280;51777;53.570;9.984;2023-04-22T03:22:27;100895.56;;;11.21;100.00
65190;BME280;51777;53.570;9.984;2023-04-22T03:24:52;100893.63;;;11.23;100.00
65190;BME280;51777;53.570;9.984;2023-04-22T03:27:18;100891.19;;;11.21;100.00
65190;BME280;51777;53.570;9.984;2023-04-22T03:29:43;100896.53;;;11.20;100.00
65190;BME280;51777;53.570;9.984;2023-04-22T03:32:08;100895.56;;;11.21;100.00
65190;BME280;51777;53.570;9.984;2023-04-22T03:34:35;100894.22;;;11.16;100.00
65190;BME280;51777;53.570;9.984;2023-04-22T03:37:00;100889.88;;;11.17;100.00
65190;BME280;51777;53.570;9.984;2023-04-22T03:39:25;100889.72;;;11.18;100.00
65190;BME280;51777;53.570;9.984;2023-04-22T03:41:51;100892.31;;;11.18;100.00
65190;BME280;51777;53.570;9.984;2023-04-22T03:44:16;100881.97;;;11.18;100.00
65190;BME280;51777;53.570;9.984;2023-04-22T03:46:41;100880.44;;;11.16;100.00
65190;BME280;51777;53.570;9.984;2023-04-22T03:49:07;100875.16;;;11.17;100.00
65190;BME280;51777;53.570;9.984;2023-04-22T03:51:32;100883.88;;;11.16;100.00
65190;BME280;51777;53.570;9.984;2023-04-22T03:53:57;100875.44;;;11.14;100.00
65190;BME280;51777;53.570;9.984;2023-04-22T03:56:23;100865.38;;;11.11;100.00
65190;BME280;51777;53.570;9.984;2023-04-22T03:58:49;100859.38;;;11.11;100.00
65190;BME280;51777;53.570;9.984;2023-04-22T04:01:14;100862.13;;;11.09;100.00
65190;BME280;51777;53.570;9.984;2023-04-22T04:03:40;100865.81;;;11.07;100.00
65190;BME280;51777;53.570;9.984;2023-04-22T04:06:06;100861.47;;;11.07;100.00
65190;BME280;51777;53.570;9.984;2023-04-22T04:08:31;100857.41;;;11.05;100.00
65190;BME280;51777;53.570;9.984;2023-04-22T04:10:56;100849.63;;;11.05;100.00
65190;BME280;51777;53.570;9.984;2023-04-22T04:13:22;100852.63;;;11.00;100.00
65190;BME280;51777;53.570;9.984;2023-04-22T04:15:47;100857.81;;;11.00;100.00
65190;BME280;51777;53.570;9.984;2023-04-22T04:18:13;100860.78;;;11.05;100.00
65190;BME280;51777;53.570;9.984;2023-04-22T04:20:39;100856.59;;;11.04;100.00
65190;BME280;51777;53.570;9.984;2023-04-22T04:23:04;100853.59;;;10.99;100.00
65190;BME280;51777;53.570;9.984;2023-04-22T04:25:30;100861.34;;;10.99;100.00
65190;BME280;51777;53.570;9.984;2023-04-22T04:28:02;100857.50;;;11.03;100.00
65190;BME280;51777;53.570;9.984;2023-04-22T04:30:29;100848.66;;;11.06;100.00
65190;BME280;51777;53.570;9.984;2023-04-22T04:32:54;100844.56;;;11.03;100.00
65190;BME280;51777;53.570;9.984;2023-04-22T04:35:21;100843.25;;;10.99;100.00
65190;BME280;51777;53.570;9.984;2023-04-22T04:37:47;100838.75;;;11.01;100.00
65190;BME280;51777;53.570;9.984;2023-04-22T04:40:15;100839.53;;;11.02;100.00
65190;BME280;51777;53.570;9.984;2023-04-22T04:42:40;100848.00;;;11.04;100.00
65190;BME280;51777;53.570;9.984;2023-04-22T04:45:07;100851.78;;;11.09;100.00
65190;BME280;51777;53.570;9.984;2023-04-22T04:47:33;100842.22;;;11.10;100.00
65190;BME280;51777;53.570;9.984;2023-04-22T04:49:59;100846.16;;;11.14;100.00
65190;BME280;51777;53.570;9.984;2023-04-22T04:52:25;100835.63;;;11.15;100.00
65190;BME280;51777;53.570;9.984;2023-04-22T04:54:51;100844.59;;;11.21;100.00
65190;BME280;51777;53.570;9.984;2023-04-22T04:57:16;100847.72;;;11.60;100.00
65190;BME280;51777;53.570;9.984;2023-04-22T04:59:41;100835.06;;;11.57;100.00
65190;BME280;51777;53.570;9.984;2023-04-22T05:02:07;100839.50;;;11.47;100.00
65190;BME280;51777;53.570;9.984;2023-04-22T05:04:32;100845.34;;;11.49;100.00
65190;BME280;51777;53.570;9.984;2023-04-22T05:06:58;100855.78;;;11.57;100.00
65190;BME280;51777;53.570;9.984;2023-04-22T05:09:23;100843.16;;;11.54;100.00
65190;BME280;51777;53.570;9.984;2023-04-22T05:11:49;100838.09;;;11.53;100.00
65190;BME280;51777;53.570;9.984;2023-04-22T05:14:14;100833.72;;;11.53;100.00
65190;BME280;51777;53.570;9.984;2023-04-22T05:16:40;100842.53;;;11.60;100.00
65190;BME280;51777;53.570;9.984;2023-04-22T05:19:05;100839.63;;;11.63;100.00
65190;BME280;51777;53.570;9.984;2023-04-22T05:21:31;100850.06;;;11.71;100.00
65190;BME280;51777;53.570;9.984;2023-04-22T05:23:56;100853.00;;;11.76;100.00
65190;BME280;51777;53.570;9.984;2023-04-22T05:26:21;100846.63;;;11.81;100.00
65190;BME280;51777;53.570;9.984;2023-04-22T05:28:47;100845.69;;;11.90;100.00
65190;BME280;51777;53.570;9.984;2023-04-22T05:31:12;100834.38;;;11.91;100.00
65190;BME280;51777;53.570;9.984;2023-04-22T05:33:37;100826.63;;;11.91;100.00
65190;BME280;51777;53.570;9.984;2023-04-22T05:36:03;100819.34;;;11.94;100.00
65190;BME280;51777;53.570;9.984;2023-04-22T05:38:29;100824.44;;;12.04;100.00
65190;BME280;51777;53.570;9.984;2023-04-22T05:40:54;100831.25;;;12.05;100.00
65190;BME280;51777;53.570;9.984;2023-04-22T05:43:19;100833.25;;;12.19;100.00
65190;BME280;51777;53.570;9.984;2023-04-22T05:45:45;100829.59;;;12.30;100.00
65190;BME280;51777;53.570;9.984;2023-04-22T05:48:10;100822.00;;;12.37;100.00
65190;BME280;51777;53.570;9.984;2023-04-22T05:50:35;100824.59;;;12.37;100.00
65190;BME280;51777;53.570;9.984;2023-04-22T05:53:01;100818.16;;;12.41;100.00
65190;BME280;51777;53.570;9.984;2023-04-22T05:55:26;100822.38;;;12.50;100.00
65190;BME280;51777;53.570;9.984;2023-04-22T05:57:53;100827.13;;;12.62;100.00
65190;BME280;51777;53.570;9.984;2023-04-22T06:00:18;100814.69;;;12.74;100.00
65190;BME280;51777;53.570;9.984;2023-04-22T06:02:43;100818.44;;;12.80;100.00
65190;BME280;51777;53.570;9.984;2023-04-22T06:05:09;100821.22;;;12.78;100.00
65190;BME280;51777;53.570;9.984;2023-04-22T06:07:34;100819.13;;;12.90;100.00
65190;BME280;51777;53.570;9.984;2023-04-22T06:10:00;100829.69;;;12.97;100.00
65190;BME280;51777;53.570;9.984;2023-04-22T06:12:25;100819.63;;;13.02;100.00
65190;BME280;51777;53.570;9.984;2023-04-22T06:14:50;100825.13;;;12.99;100.00
65190;BME280;51777;53.570;9.984;2023-04-22T06:17:16;100823.38;;;13.07;100.00
65190;BME280;51777;53.570;9.984;2023-04-22T06:19:41;100827.25;;;13.11;100.00
65190;BME280;51777;53.570;9.984;2023-04-22T06:22:08;100816.94;;;13.19;100.00
65190;BME280;51777;53.570;9.984;2023-04-22T06:24:33;100815.00;;;13.30;100.00
65190;BME280;51777;53.570;9.984;2023-04-22T06:26:58;100809.34;;;13.42;100.00
65190;BME280;51777;53.570;9.984;2023-04-22T06:29:24;100811.13;;;13.42;100.00
65190;BME280;51777;53.570;9.984;2023-04-22T06:31:49;100809.63;;;13.39;100.00
65190;BME280;51777;53.570;9.984;2023-04-22T06:34:14;100815.00;;;13.46;100.00
65190;BME280;51777;53.570;9.984;2023-04-22T06:36:40;100813.22;;;13.55;100.00
65190;BME280;51777;53.570;9.984;2023-04-22T06:39:05;100809.66;;;13.56;100.00
65190;BME280;51777;53.570;9.984;2023-04-22T06:41:31;100814.69;;;13.65;100.00
65190;BME280;51777;53.570;9.984;2023-04-22T06:43:57;100816.63;;;13.71;100.00
65190;BME280;51777;53.570;9.984;2023-04-22T06:46:23;100813.22;;;13.71;100.00
65190;BME280;51777;53.570;9.984;2023-04-22T06:48:48;100817.75;;;13.77;100.00
65190;BME280;51777;53.570;9.984;2023-04-22T06:51:14;100812.88;;;13.82;100.00
65190;BME280;51777;53.570;9.984;2023-04-22T06:53:39;100794.38;;;13.69;100.00
65190;BME280;51777;53.570;9.984;2023-04-22T06:56:05;100807.69;;;13.90;100.00
65190;BME280;51777;53.570;9.984;2023-04-22T06:58:32;100806.66;;;13.99;100.00
65190;BME280;51777;53.570;9.984;2023-04-22T07:00:58;100811.84;;;14.16;100.00
65190;BME280;51777;53.570;9.984;2023-04-22T07:03:28;100795.78;;;13.96;100.00
65190;BME280;51777;53.570;9.984;2023-04-22T07:05:53;100801.47;;;13.99;100.00
65190;BME280;51777;53.570;9.984;2023-04-22T07:08:18;100801.28;;;14.09;100.00
65190;BME280;51777;53.570;9.984;2023-04-22T07:10:44;100800.09;;;14.28;100.00
65190;BME280;51777;53.570;9.984;2023-04-22T07:13:09;100805.31;;;14.28;100.00
65190;BME280;51777;53.570;9.984;2023-04-22T07:15:35;100800.47;;;14.17;100.00
65190;BME280;51777;53.570;9.984;2023-04-22T07:18:00;100798.31;;;14.20;100.00
65190;BME280;51777;53.570;9.984;2023-04-22T07:20:25;100801.06;;;14.27;100.00
65190;BME280;51777;53.570;9.984;2023-04-22T07:22:51;100801.69;;;14.45;100.00
65190;BME280;51777;53.570;9.984;2023-04-22T07:25:17;100802.34;;;14.39;100.00
65190;BME280;51777;53.570;9.984;2023-04-22T07:27:42;100800.69;;;14.38;100.00
65190;BME280;51777;53.570;9.984;2023-04-22T07:30:11;100794.84;;;14.44;100.00
65190;BME280;51777;53.570;9.984;2023-04-22T07:32:37;100796.44;;;14.53;100.00
65190;BME280;51777;53.570;9.984;2023-04-22T07:35:03;100799.38;;;14.50;100.00
65190;BME280;51777;53.570;9.984;2023-04-22T07:37:28;100786.69;;;14.55;100.00
65190;BME280;51777;53.570;9.984;2023-04-22T07:39:53;100796.06;;;14.64;100.00
65190;BME280;51777;53.570;9.984;2023-04-22T07:42:19;100793.34;;;14.89;100.00
65190;BME280;51777;53.570;9.984;2023-04-22T07:44:44;100802.25;;;15.17;100.00
65190;BME280;51777;53.570;9.984;2023-04-22T07:47:10;100797.94;;;15.47;100.00
65190;BME280;51777;53.570;9.984;2023-04-22T07:49:35;100791.53;;;15.35;100.00
65190;BME280;51777;53.570;9.984;2023-04-22T07:52:01;100797.50;;;15.44;100.00
65190;BME280;51777;53.570;9.984;2023-04-22T07:54:26;100796.13;;;15.48;100.00
65190;BME280;51777;53.570;9.984;2023-04-22T07:56:51;100793.78;;;15.61;100.00
65190;BME280;51777;53.570;9.984;2023-04-22T07:59:17;100789.47;;;15.68;100.00
65190;BME280;51777;53.570;9.984;2023-04-22T08:01:42;100788.06;;;16.10;100.00
65190;BME280;51777;53.570;9.984;2023-04-22T08:04:10;100786.44;;;16.38;100.00
65190;BME280;51777;53.570;9.984;2023-04-22T08:06:36;100788.47;;;16.58;100.00
65190;BME280;51777;53.570;9.984;2023-04-22T08:09:02;100791.16;;;16.79;100.00
65190;BME280;51777;53.570;9.984;2023-04-22T08:11:27;100782.50;;;16.79;100.00
65190;BME280;51777;53.570;9.984;2023-04-22T08:13:53;100779.84;;;16.93;100.00
65190;BME280;51777;53.570;9.984;2023-04-22T08:16:18;100777.44;;;17.13;100.00
65190;BME280;51777;53.570;9.984;2023-04-22T08:18:44;100768.84;;;17.47;100.00
65190;BME280;51777;53.570;9.984;2023-04-22T08:21:09;100771.09;;;17.50;100.00
65190;BME280;51777;53.570;9.984;2023-04-22T08:23:36;100781.00;;;17.83;100.00
65190;BME280;51777;53.570;9.984;2023-04-22T08:26:02;100781.09;;;19.18;100.00
65190;BME280;51777;53.570;9.984;2023-04-22T08:28:28;100787.13;;;19.98;100.00
65190;BME280;51777;53.570;9.984;2023-04-22T08:30:53;100790.22;;;21.41;100.00
65190;BME280;51777;53.570;9.984;2023-04-22T08:33:19;100798.97;;;22.21;100.00
65190;BME280;51777;53.570;9.984;2023-04-22T08:35:44;100791.22;;;23.28;100.00
65190;BME280;51777;53.570;9.984;2023-04-22T08:38:10;100797.31;;;23.99;100.00
65190;BME280;51777;53.570;9.984;2023-04-22T08:40:40;100796.56;;;25.46;99.26
65190;BME280;51777;53.570;9.984;2023-04-22T08:43:06;100809.44;;;26.90;97.96
65190;BME280;51777;53.570;9.984;2023-04-22T08:45:32;100817.63;;;28.58;95.15
65190;BME280;51777;53.570;9.984;2023-04-22T08:47:58;100805.19;;;27.54;95.88
65190;BME280;51777;53.570;9.984;2023-04-22T08:50:25;100782.31;;;24.28;100.00
65190;BME280;51777;53.570;9.984;2023-04-22T08:52:50;100782.75;;;22.54;100.00
65190;BME280;51777;53.570;9.984;2023-04-22T08:55:16;100792.19;;;22.62;100.00
65190;BME280;51777;53.570;9.984;2023-04-22T08:57:43;100791.81;;;23.54;100.00
65190;BME280;51777;53.570;9.984;2023-04-22T09:00:10;100798.72;;;25.15;99.22
65190;BME280;51777;53.570;9.984;2023-04-22T09:02:36;100810.38;;;27.75;96.75
65190;BME280;51777;53.570;9.984;2023-04-22T09:05:04;100811.47;;;28.52;95.48
65190;BME280;51777;53.570;9.984;2023-04-22T09:07:31;100811.53;;;30.34;94.18
65190;BME280;51777;53.570;9.984;2023-04-22T09:09:57;100816.59;;;30.40;92.73
65190;BME280;51777;53.570;9.984;2023-04-22T09:12:26;100817.28;;;30.56;92.65
65190;BME280;51777;53.570;9.984;2023-04-22T09:14:52;100828.09;;;32.77;91.85
65190;BME280;51777;53.570;9.984;2023-04-22T09:17:30;100818.25;;;32.16;91.26
65190;BME280;51777;53.570;9.984;2023-04-22T09:19:57;100810.38;;;31.29;92.41
65190;BME280;51777;53.570;9.984;2023-04-22T09:22:25;100812.25;;;31.81;92.46
65190;BME280;51777;53.570;9.984;2023-04-22T09:24:51;100819.38;;;32.09;92.36
65190;BME280;51777;53.570;9.984;2023-04-22T09:27:17;100826.56;;;33.68;90.99
65190;BME280;51777;53.570;9.984;2023-04-22T09:29:50;100821.50;;;31.65;90.87
65190;BME280;51777;53.570;9.984;2023-04-22T09:32:16;100824.34;;;32.40;91.58
65190;BME280;51777;53.570;9.984;2023-04-22T09:34:52;100817.47;;;31.91;90.97
65190;BME280;51777;53.570;9.984;2023-04-22T09:37:24;100803.72;;;29.93;92.88
65190;BME280;51777;53.570;9.984;2023-04-22T09:39:50;100792.38;;;29.27;93.69
65190;BME280;51777;53.570;9.984;2023-04-22T09:42:16;100796.13;;;30.70;93.08
65190;BME280;51777;53.570;9.984;2023-04-22T09:44:44;100788.19;;;30.00;92.56
65190;BME280;51777;53.570;9.984;2023-04-22T09:47:09;100795.06;;;30.71;92.45
65190;BME280;51777;53.570;9.984;2023-04-22T09:49:36;100791.84;;;31.61;92.05
65190;BME280;51777;53.570;9.984;2023-04-22T09:52:05;100794.88;;;32.21;91.76
65190;BME280;51777;53.570;9.984;2023-04-22T09:54:31;100793.38;;;32.34;90.91
65190;BME280;51777;53.570;9.984;2023-04-22T09:56:56;100782.41;;;31.45;91.49
65190;BME280;51777;53.570;9.984;2023-04-22T09:59:24;100790.41;;;31.45;92.25
65190;BME280;51777;53.570;9.984;2023-04-22T10:01:57;100783.91;;;31.80;91.59
65190;BME280;51777;53.570;9.984;2023-04-22T10:04:24;100780.41;;;30.68;91.83
65190;BME280;51777;53.570;9.984;2023-04-22T10:06:53;100775.50;;;30.81;92.33
65190;BME280;51777;53.570;9.984;2023-04-22T10:09:21;100776.00;;;30.44;92.79
65190;BME280;51777;53.570;9.984;2023-04-22T10:11:48;100775.59;;;31.81;91.66
65190;BME280;51777;53.570;9.984;2023-04-22T10:14:14;100755.06;;;30.66;92.69
65190;BME280;51777;53.570;9.984;2023-04-22T10:16:42;100759.34;;;31.78;91.59
65190;BME280;51777;53.570;9.984;2023-04-22T10:19:11;100752.63;;;30.69;92.61
65190;BME280;51777;53.570;9.984;2023-04-22T10:21:40;100746.88;;;30.03;93.22
65190;BME280;51777;53.570;9.984;2023-04-22T10:24:14;100752.50;;;31.43;92.38
65190;BME280;51777;53.570;9.984;2023-04-22T10:29:15;100744.31;;;30.76;93.15
65190;BME280;51777;53.570;9.984;2023-04-22T10:31:42;100744.88;;;30.29;93.08
65190;BME280;51777;53.570;9.984;2023-04-22T10:34:13;100737.47;;;30.21;93.39
65190;BME280;51777;53.570;9.984;2023-04-22T10:37:05;100731.59;;;30.92;92.84
65190;BME280;51777;53.570;9.984;2023-04-22T10:39:31;100722.88;;;30.81;92.34
65190;BME280;51777;53.570;9.984;2023-04-22T10:42:06;100721.38;;;29.81;93.26
65190;BME280;51777;53.570;9.984;2023-04-22T10:44:54;100717.06;;;29.01;94.34
65190;BME280;51777;53.570;9.984;2023-04-22T10:47:32;100711.38;;;29.38;94.32
65190;BME280;51777;53.570;9.984;2023-04-22T10:50:11;100709.19;;;30.20;93.96
65190;BME280;51777;53.570;9.984;2023-04-22T10:52:38;100706.00;;;29.58;94.02
65190;BME280;51777;53.570;9.984;2023-04-22T10:55:04;100708.53;;;29.09;94.60
65190;BME280;51777;53.570;9.984;2023-04-22T10:57:35;100702.16;;;29.85;94.56
65190;BME280;51777;53.570;9.984;2023-04-22T11:03:12;100694.97;;;28.70;94.74
65190;BME280;51777;53.570;9.984;2023-04-22T11:05:39;100688.03;;;28.38;95.34
65190;BME280;51777;53.570;9.984;2023-04-22T11:10:42;100677.41;;;28.48;95.00
65190;BME280;51777;53.570;9.984;2023-04-22T11:13:18;100681.88;;;28.22;95.44
65190;BME280;51777;53.570;9.984;2023-04-22T11:15:47;100681.66;;;28.39;95.51
65190;BME280;51777;53.570;9.984;2023-04-22T11:18:16;100676.31;;;29.00;95.17
65190;BME280;51777;53.570;9.984;2023-04-22T11:20:44;100665.53;;;29.46;94.92
65190;BME280;51777;53.570;9.984;2023-04-22T11:23:16;100661.94;;;28.76;94.72
65190;BME280;51777;53.570;9.984;2023-04-22T11:25:42;100655.78;;;28.14;95.79
65190;BME280;51777;53.570;9.984;2023-04-22T11:28:09;100664.06;;;28.18;95.73
65190;BME280;51777;53.570;9.984;2023-04-22T11:30:34;100653.47;;;28.69;95.95
65190;BME280;51777;53.570;9.984;2023-04-22T11:33:00;100649.63;;;29.20;94.52
65190;BME280;51777;53.570;9.984;2023-04-22T11:35:30;100645.97;;;28.76;95.33
65190;BME280;51777;53.570;9.984;2023-04-22T11:38:01;100641.44;;;29.71;94.64
65190;BME280;51777;53.570;9.984;2023-04-22T11:40:40;100649.72;;;30.19;93.75
65190;BME280;51777;53.570;9.984;2023-04-22T11:43:08;100644.16;;;30.10;94.08
65190;BME280;51777;53.570;9.984;2023-04-22T11:45:38;100649.44;;;30.84;92.92
65190;BME280;51777;53.570;9.984;2023-04-22T11:48:05;100641.41;;;29.76;94.10
65190;BME280;51777;53.570;9.984;2023-04-22T11:50:33;100635.41;;;29.56;94.07
65190;BME280;51777;53.570;9.984;2023-04-22T11:53:03;100626.56;;;29.65;93.79
65190;BME280;51777;53.570;9.984;2023-04-22T11:55:34;100638.13;;;29.95;94.26
65190;BME280;51777;53.570;9.984;2023-04-22T11:58:23;100625.78;;;28.70;94.68
65190;BME280;51777;53.570;9.984;2023-04-22T12:00:50;100614.91;;;29.46;94.35
65190;BME280;51777;53.570;9.984;2023-04-22T12:03:18;100613.81;;;29.57;94.45
65190;BME280;51777;53.570;9.984;2023-04-22T12:05:58;100617.25;;;30.41;93.98
65190;BME280;51777;53.570;9.984;2023-04-22T12:10:56;100614.94;;;30.87;93.05
65190;BME280;51777;53.570;9.984;2023-04-22T12:15:51;100610.34;;;30.69;93.69
65190;BME280;51777;53.570;9.984;2023-04-22T12:18:33;100607.06;;;30.77;93.23
65190;BME280;51777;53.570;9.984;2023-04-22T12:21:09;100609.75;;;31.44;92.94
65190;BME280;51777;53.570;9.984;2023-04-22T12:26:08;100608.25;;;31.14;93.24
65190;BME280;51777;53.570;9.984;2023-04-22T12:28:33;100599.31;;;30.18;94.01
65190;BME280;51777;53.570;9.984;2023-04-22T12:30:59;100593.88;;;29.44;94.38
65190;BME280;51777;53.570;9.984;2023-04-22T12:33:24;100593.34;;;29.47;94.67
65190;BME280;51777;53.570;9.984;2023-04-22T12:35:53;100582.03;;;29.11;95.27
65190;BME280;51777;53.570;9.984;2023-04-22T12:38:18;100579.25;;;29.42;94.86
65190;BME280;51777;53.570;9.984;2023-04-22T12:40:50;100579.84;;;29.78;94.37
65190;BME280;51777;53.570;9.984;2023-04-22T12:43:20;100571.22;;;29.52;95.16
65190;BME280;51777;53.570;9.984;2023-04-22T12:45:45;100572.59;;;29.83;94.82
65190;BME280;51777;53.570;9.984;2023-04-22T12:48:14;100565.91;;;29.42;95.06
65190;BME280;51777;53.570;9.984;2023-04-22T12:50:40;100564.03;;;29.42;95.29
65190;BME280;51777;53.570;9.984;2023-04-22T12:53:05;100563.75;;;30.27;94.40
65190;BME280;51777;53.570;9.984;2023-04-22T12:55:31;100567.06;;;31.20;93.94